Time;durP1;ratioP1;P1;durP2;ratioP2;P2;SDS_P1;SDS_P2;PMS_P1;PMS_P2;Temp;Humidity;BMP_temperature;BMP_pressure;BME280_temperature;BME280_humidity;BME280_pressure;Samples;Min_cycle;Max_cycle;Signal;HPM_P1;HPM_P2
2021/01/16 00:00:59;;;;;;;28.48;17.75;;;;;;;0.41;84.95;101647.63;5066344;28;20105;-72
2021/01/16 00:03:26;;;;;;;27.38;17.38;;;;;;;0.45;84.78;101643.25;5057870;28;20052;-71
2021/01/16 00:05:53;;;;;;;31.27;18.77;;;;;;;0.36;85.05;101630.94;5057540;28;20056;-72
2021/01/16 00:08:21;;;;;;;29.80;18.45;;;;;;;0.32;84.93;101622.16;5057494;28;20121;-70
2021/01/16 00:10:53;;;;;;;31.20;18.95;;;;;;;0.47;84.98;101631.00;5056376;28;20505;-70
2021/01/16 00:13:25;;;;;;;30.73;18.05;;;;;;;0.42;84.82;101620.47;5057216;28;20053;-71
2021/01/16 00:15:52;;;;;;;31.88;18.13;;;;;;;0.45;84.93;101628.38;5056437;28;20056;-69
2021/01/16 00:18:23;;;;;;;27.33;18.00;;;;;;;0.39;85.61;101621.34;5057414;28;20052;-70
2021/01/16 00:20:52;;;;;;;29.80;17.60;;;;;;;0.37;85.09;101628.34;5057381;28;20446;-69
2021/01/16 00:23:27;;;;;;;27.17;17.83;;;;;;;0.45;84.91;101622.25;5057257;28;20056;-71
2021/01/16 00:25:55;;;;;;;29.33;17.17;;;;;;;0.40;84.20;101622.22;5056381;28;20057;-70
2021/01/16 00:28:28;;;;;;;29.13;18.25;;;;;;;0.40;84.68;101630.09;5056717;28;20068;-70
2021/01/16 00:30:54;;;;;;;29.42;17.17;;;;;;;0.33;84.66;101608.16;5055924;28;20053;-70
2021/01/16 00:33:23;;;;;;;30.40;17.73;;;;;;;0.35;84.82;101609.06;5057005;28;20061;-70
2021/01/16 00:35:50;;;;;;;30.63;17.60;;;;;;;0.22;85.07;101583.63;5056954;28;20139;-70
2021/01/16 00:38:17;;;;;;;30.08;18.65;;;;;;;0.37;84.93;101611.69;5056989;28;20053;-73
2021/01/16 00:40:43;;;;;;;29.20;18.23;;;;;;;0.29;85.62;101616.03;5056352;28;20087;-70
2021/01/16 00:43:12;;;;;;;32.35;17.92;;;;;;;0.22;85.06;101605.50;5055741;28;20064;-70
2021/01/16 00:45:40;;;;;;;29.52;19.40;;;;;;;0.29;84.80;101613.41;5057036;28;20390;-70
2021/01/16 00:48:17;;;;;;;28.48;17.40;;;;;;;0.18;85.71;101611.63;5056865;28;20053;-70
2021/01/16 00:50:44;;;;;;;27.35;17.55;;;;;;;0.28;84.72;101602.03;5057092;28;20056;-71
2021/01/16 00:53:11;;;;;;;29.15;17.33;;;;;;;0.30;84.92;101621.28;5056745;28;20056;-71
2021/01/16 00:55:38;;;;;;;28.00;17.25;;;;;;;0.22;85.15;101608.13;5056654;28;20057;-71
2021/01/16 00:58:12;;;;;;;31.85;18.42;;;;;;;0.19;85.54;101589.72;5056223;28;20135;-71
2021/01/16 01:00:41;;;;;;;28.48;18.27;;;;;;;0.21;85.00;101592.38;5056382;28;20057;-70
2021/01/16 01:03:09;;;;;;;28.67;16.90;;;;;;;0.27;85.38;101608.13;5074706;28;20438;-70
2021/01/16 01:05:36;;;;;;;28.27;16.90;;;;;;;0.32;84.56;101601.16;5076514;28;20411;-71
2021/01/16 01:08:02;;;;;;;29.10;17.55;;;;;;;0.34;85.39;101615.19;5076388;28;20048;-70
2021/01/16 01:10:37;;;;;;;31.42;17.83;;;;;;;0.35;84.87;101601.19;5076654;28;20044;-71
2021/01/16 01:13:03;;;;;;;26.05;17.38;;;;;;;0.31;84.84;101596.78;5076436;28;20121;-71
2021/01/16 01:15:29;;;;;;;26.73;17.88;;;;;;;0.37;84.65;101612.56;5076912;28;20052;-70
2021/01/16 01:17:58;;;;;;;26.30;17.67;;;;;;;0.29;85.69;101610.78;5075718;28;20085;-70
2021/01/16 01:20:24;;;;;;;31.73;17.90;;;;;;;0.27;85.44;101616.00;5076273;28;20048;-71
2021/01/16 01:22:51;;;;;;;27.48;18.05;;;;;;;0.23;85.75;101615.13;5075186;28;20059;-71
2021/01/16 01:25:18;;;;;;;29.42;19.52;;;;;;;0.26;85.74;101612.53;5075889;28;20143;-70
2021/01/16 01:27:51;;;;;;;33.95;18.55;;;;;;;0.30;85.92;101604.66;5074907;28;20054;-71
2021/01/16 01:30:19;;;;;;;30.58;17.88;;;;;;;0.35;85.93;101614.31;5076255;28;20055;-71
2021/01/16 01:32:46;;;;;;;32.75;17.33;;;;;;;0.28;85.64;101609.91;5075753;28;20108;-72
2021/01/16 01:35:12;;;;;;;28.55;17.63;;;;;;;0.34;85.77;101611.69;5074774;28;20323;-71
2021/01/16 01:37:43;;;;;;;30.10;17.35;;;;;;;0.23;86.00;101607.25;5074896;28;20053;-71
2021/01/16 01:40:10;;;;;;;;;;;;;;;0.31;86.32;101604.66;5076490;28;20044;-71
2021/01/16 01:42:37;;;;;;;31.25;17.52;;;;;;;0.33;85.96;101602.06;5075789;28;20219;-71
2021/01/16 01:45:09;;;;;;;32.80;17.95;;;;;;;0.31;86.20;101602.03;5075957;28;20056;-71
2021/01/16 01:47:37;;;;;;;27.65;17.15;;;;;;;0.25;85.84;101599.38;5075558;28;20102;-71
2021/01/16 01:50:06;;;;;;;29.83;18.25;;;;;;;0.26;86.18;101601.13;5074509;28;20044;-71
2021/01/16 01:52:34;;;;;;;27.75;18.73;;;;;;;0.25;86.51;101607.25;5075480;28;20102;-71
2021/01/16 01:55:03;;;;;;;27.48;17.77;;;;;;;0.34;85.61;101601.19;5057738;28;20064;-71
2021/01/16 01:57:33;;;;;;;32.50;18.85;;;;;;;0.31;85.60;101594.16;5075330;28;20048;-71
2021/01/16 02:00:03;;;;;;;33.67;19.02;;;;;;;0.32;85.59;101593.28;5075290;28;20183;-71
2021/01/16 02:02:36;;;;;;;29.80;19.75;;;;;;;0.30;85.43;101592.41;5060463;28;20052;-71
2021/01/16 02:05:06;;;;;;;36.53;18.85;;;;;;;0.12;85.16;101543.31;5055187;28;20430;-71
2021/01/16 02:07:37;;;;;;;29.02;18.38;;;;;;;0.39;85.03;101581.94;5055290;28;20048;-71
2021/01/16 02:10:11;;;;;;;31.02;18.88;;;;;;;0.31;85.28;101585.38;5055341;28;20045;-71
2021/01/16 02:12:41;;;;;;;30.92;18.00;;;;;;;0.34;85.00;101577.53;5055207;28;20465;-72
2021/01/16 02:15:36;;;;;;;30.17;18.40;;;;;;;0.38;85.12;101580.19;5055103;28;20048;-71
2021/01/16 02:18:32;;;;;;;34.97;18.48;;;;;;;0.26;85.11;101585.38;5055001;28;20053;-71
2021/01/16 02:21:01;;;;;;;33.75;19.08;;;;;;;0.28;85.17;101575.78;5054966;28;20052;-71
2021/01/16 02:23:27;;;;;;;29.25;18.27;;;;;;;0.25;85.52;101586.25;5054915;28;20057;-71
2021/01/16 02:26:11;;;;;;;34.42;18.35;;;;;;;0.29;85.71;101580.16;5055280;28;20049;-71
2021/01/16 02:29:00;;;;;;;29.33;18.15;;;;;;;0.36;85.17;101567.91;5054696;28;20397;-71
2021/01/16 02:31:31;;;;;;;28.98;19.20;;;;;;;0.26;85.18;101564.38;5054897;28;20107;-71
2021/01/16 02:34:00;;;;;;;32.08;19.02;;;;;;;0.17;84.88;101559.09;5055154;28;20389;-70
2021/01/16 02:36:35;;;;;;;30.75;18.65;;;;;;;0.25;85.23;101565.25;5055152;28;20052;-70
2021/01/16 02:39:27;;;;;;;33.00;19.25;;;;;;;0.17;85.83;101559.97;5053835;28;20053;-69
2021/01/16 02:41:56;;;;;;;28.23;18.33;;;;;;;0.25;85.97;101562.63;5055020;28;20091;-72
2021/01/16 02:44:31;;;;;;;29.10;18.30;;;;;;;0.19;85.61;101549.44;5054809;28;20187;-71
2021/01/16 02:47:15;;;;;;;29.08;18.02;;;;;;;0.15;85.82;101559.06;5055320;28;20049;-71
2021/01/16 02:49:49;;;;;;;27.67;17.70;;;;;;;0.20;86.10;101564.34;5054768;28;20091;-70
2021/01/16 02:52:19;;;;;;;27.85;17.52;;;;;;;0.17;85.97;101559.97;5054146;28;20084;-70
2021/01/16 02:54:47;;;;;;;28.38;17.83;;;;;;;0.21;85.86;101550.34;5053703;28;20072;-70
2021/01/16 02:57:15;;;;;;;30.58;18.48;;;;;;;0.23;85.58;101552.09;5053962;28;20084;-70
2021/01/16 02:59:46;;;;;;;31.35;18.85;;;;;;;0.09;85.91;101540.66;5054742;28;20045;-70
2021/01/16 03:02:14;;;;;;;31.45;18.67;;;;;;;0.16;85.98;101544.19;5066620;28;20350;-70
2021/01/16 03:04:41;;;;;;;31.67;18.52;;;;;;;0.17;85.45;101549.47;5075311;28;20075;-71
2021/01/16 03:07:09;;;;;;;31.25;19.75;;;;;;;0.15;86.07;101551.19;5075000;28;20086;-71
2021/01/16 03:09:36;;;;;;;33.00;19.45;;;;;;;0.19;85.55;101554.72;5074692;28;20052;-70
2021/01/16 03:12:04;;;;;;;29.90;17.40;;;;;;;0.13;85.46;101545.91;5078479;28;20056;-70
2021/01/16 03:14:36;;;;;;;28.73;18.45;;;;;;;0.24;84.53;101548.63;5077185;28;20503;-71
2021/01/16 03:17:14;;;;;;;30.73;18.30;;;;;;;0.10;85.18;101531.91;5077231;28;20416;-71
2021/01/16 03:19:45;;;;;;;27.02;17.90;;;;;;;0.19;85.15;101547.72;5078133;28;20177;-71
2021/01/16 03:22:23;;;;;;;31.23;18.88;;;;;;;0.19;85.39;101544.19;5078585;28;20129;-71
2021/01/16 03:24:53;;;;;;;27.75;17.83;;;;;;;0.21;85.36;101545.97;5078137;28;20442;-72
2021/01/16 03:27:20;;;;;;;30.70;18.83;;;;;;;0.22;85.09;101542.47;5078172;28;20052;-71
2021/01/16 03:29:46;;;;;;;28.33;17.98;;;;;;;0.22;85.77;101542.47;5078035;28;20044;-70
2021/01/16 03:32:13;;;;;;;29.02;17.50;;;;;;;0.20;85.47;101530.19;5078105;28;20067;-71
2021/01/16 03:34:41;;;;;;;33.40;19.70;;;;;;;0.26;85.70;101543.34;5077112;28;20397;-71
2021/01/16 03:37:08;;;;;;;30.70;18.77;;;;;;;0.17;85.16;101543.31;5078008;28;20052;-71
2021/01/16 03:39:35;;;;;;;32.95;19.00;;;;;;;0.17;85.57;101538.06;5077145;28;20044;-71
2021/01/16 03:42:03;;;;;;;31.77;19.10;;;;;;;0.17;85.44;101535.44;5078086;28;20053;-70
2021/01/16 03:44:29;;;;;;;30.05;18.48;;;;;;;0.25;85.90;101544.22;5078430;28;20052;-71
2021/01/16 03:46:55;;;;;;;26.38;17.60;;;;;;;0.12;85.64;101517.91;5078194;28;20056;-71
2021/01/16 03:49:21;;;;;;;28.80;17.15;;;;;;;0.20;85.62;101527.56;5077078;28;20051;-71
2021/01/16 03:51:48;;;;;;;32.03;18.38;;;;;;;0.30;84.76;101534.63;5077968;28;20057;-71
2021/01/16 03:54:14;;;;;;;26.95;17.67;;;;;;;0.22;85.88;101531.09;5077695;28;20051;-71
2021/01/16 03:56:40;;;;;;;31.30;18.67;;;;;;;0.19;85.73;101531.06;5077968;28;20049;-71
2021/01/16 03:59:06;;;;;;;36.33;19.55;;;;;;;0.17;85.91;101528.47;5076575;28;20101;-71
2021/01/16 04:01:33;;;;;;;30.55;18.33;;;;;;;0.16;85.59;101539.81;5071316;28;20071;-71
2021/01/16 04:04:01;;;;;;;33.53;18.23;;;;;;;0.18;85.27;101524.06;5057704;28;20061;-71
2021/01/16 04:06:27;;;;;;;33.10;17.95;;;;;;;0.14;85.25;101528.44;5057788;28;20049;-71
2021/01/16 04:08:53;;;;;;;34.35;20.13;;;;;;;0.18;84.87;101524.06;5057650;28;20049;-71
2021/01/16 04:11:20;;;;;;;27.75;18.02;;;;;;;0.08;85.29;101512.66;5057597;28;20075;-71
2021/01/16 04:13:47;;;;;;;31.15;18.83;;;;;;;0.18;84.95;101514.47;5057395;28;20048;-71
2021/01/16 04:16:13;;;;;;;31.85;18.90;;;;;;;0.19;85.61;101510.97;5057201;28;20140;-71
2021/01/16 04:18:40;;;;;;;30.88;19.15;;;;;;;0.19;85.14;101496.94;5057240;28;20415;-71
2021/01/16 04:21:06;;;;;;;27.73;18.33;;;;;;;0.26;85.02;101514.47;5056167;28;20053;-71
2021/01/16 04:23:32;;;;;;;32.60;18.83;;;;;;;0.18;85.54;101508.31;5057164;28;20056;-71
2021/01/16 04:25:59;;;;;;;29.95;19.30;;;;;;;0.22;85.19;101507.47;5057010;28;20716;-71
2021/01/16 04:28:26;;;;;;;30.77;17.38;;;;;;;0.31;84.84;101490.84;5055955;28;20049;-71
2021/01/16 04:30:52;;;;;;;32.95;19.75;;;;;;;0.34;84.51;101491.75;5056075;28;20107;-71
2021/01/16 04:33:18;;;;;;;35.25;20.10;;;;;;;0.24;85.55;101495.22;5057173;28;20049;-71
2021/01/16 04:35:45;;;;;;;32.42;19.92;;;;;;;0.22;85.60;101483.84;5057132;28;20110;-72
2021/01/16 04:38:12;;;;;;;33.30;19.77;;;;;;;0.25;85.39;101494.34;5056806;28;20140;-71
2021/01/16 04:40:38;;;;;;;34.28;19.38;;;;;;;0.13;85.95;101480.28;5057192;28;20049;-71
2021/01/16 04:43:05;;;;;;;31.52;19.85;;;;;;;0.10;86.00;101475.03;5056949;28;20136;-71
2021/01/16 04:45:32;;;;;;;32.75;19.60;;;;;;;0.15;86.54;101482.91;5057102;28;20061;-71
2021/01/16 04:48:00;;;;;;;32.78;20.13;;;;;;;0.21;86.13;101487.34;5056094;28;20095;-71
2021/01/16 04:50:29;;;;;;;33.47;20.05;;;;;;;0.21;86.04;101488.19;5055514;28;20048;-71
2021/01/16 04:53:01;;;;;;;33.47;19.25;;;;;;;0.19;85.87;101479.44;5057043;28;20056;-72
2021/01/16 04:55:30;;;;;;;33.40;20.35;;;;;;;0.18;86.42;101474.19;5056822;28;20056;-71
2021/01/16 04:58:07;;;;;;;34.28;19.80;;;;;;;0.19;86.28;101483.81;5056767;28;20381;-71
2021/01/16 05:00:36;;;;;;;34.25;19.80;;;;;;;0.23;86.36;101477.72;5056633;28;20041;-71
2021/01/16 05:03:22;;;;;;;36.83;21.08;;;;;;;0.31;85.70;101477.72;5074240;28;20432;-71
2021/01/16 05:05:52;;;;;;;29.52;18.75;;;;;;;0.22;85.67;101468.09;5076465;28;20487;-71
2021/01/16 05:08:19;;;;;;;34.47;20.15;;;;;;;0.11;86.12;101460.19;5075299;28;20056;-71
2021/01/16 05:10:48;;;;;;;35.92;21.15;;;;;;;0.13;85.86;101464.53;5076365;28;20048;-71
2021/01/16 05:13:16;;;;;;;35.90;20.73;;;;;;;0.15;85.73;101466.31;5076713;28;20049;-71
2021/01/16 05:15:46;;;;;;;36.35;20.58;;;;;;;0.12;86.12;101462.78;5076313;28;20048;-71
2021/01/16 05:18:14;;;;;;;33.97;19.35;;;;;;;0.07;85.81;101446.16;5075183;28;20054;-71
2021/01/16 05:20:46;;;;;;;32.05;20.45;;;;;;;0.10;85.99;101438.28;5076093;28;20048;-71
2021/01/16 05:23:14;;;;;;;33.17;19.65;;;;;;;0.12;86.07;101441.78;5076333;28;20048;-71
2021/01/16 05:25:51;;;;;;;34.22;20.83;;;;;;;0.12;85.85;101441.78;5075254;28;20056;-71
2021/01/16 05:28:24;;;;;;;31.52;20.48;;;;;;;0.20;85.01;101439.19;5076170;28;20061;-71
2021/01/16 05:30:59;;;;;;;33.58;20.45;;;;;;;0.17;85.75;101438.31;5075911;28;20102;-71
2021/01/16 05:33:31;;;;;;;35.10;19.50;;;;;;;0.13;86.18;101430.41;5075291;28;20387;-71
2021/01/16 05:36:00;;;;;;;30.77;19.45;;;;;;;0.13;86.17;101427.78;5075924;28;20056;-71
2021/01/16 05:38:32;;;;;;;32.67;21.02;;;;;;;0.09;85.56;101425.13;5076010;28;20049;-71
2021/01/16 05:40:58;;;;;;;32.38;20.95;;;;;;;0.05;85.57;101408.50;5075221;28;20063;-71
2021/01/16 05:43:26;;;;;;;34.85;20.30;;;;;;;0.17;84.98;101419.91;5075627;28;20055;-70
2021/01/16 05:45:58;;;;;;;33.42;20.90;;;;;;;0.11;85.04;101420.78;5075770;28;20052;-71
2021/01/16 05:48:26;;;;;;;33.33;19.95;;;;;;;0.10;84.90;101413.75;5075640;28;20048;-71
2021/01/16 05:50:54;;;;;;;31.10;20.15;;;;;;;0.19;84.85;101421.69;5075605;28;20049;-72
2021/01/16 05:53:25;;;;;;;33.45;20.80;;;;;;;0.15;84.77;101406.78;5075925;28;20129;-71
2021/01/16 05:55:53;;;;;;;35.22;19.23;;;;;;;0.15;84.85;101412.03;5075497;28;20052;-71
2021/01/16 05:58:21;;;;;;;39.80;18.98;;;;;;;0.15;85.37;101409.41;5075751;28;20056;-73
2021/01/16 06:00:50;;;;;;;31.15;19.15;;;;;;;0.17;85.07;101402.44;5076158;28;20051;-71
2021/01/16 06:03:18;;;;;;;31.65;19.98;;;;;;;0.06;84.81;101373.50;5055760;28;20121;-71
2021/01/16 06:05:50;;;;;;;31.02;19.38;;;;;;;0.16;84.43;101395.41;5057300;28;20063;-71
2021/01/16 06:08:17;;;;;;;36.65;20.98;;;;;;;0.16;84.88;101394.53;5056840;28;20060;-71
2021/01/16 06:10:50;;;;;;;32.70;20.73;;;;;;;0.11;85.33;101398.03;5056824;28;20049;-71
2021/01/16 06:13:19;;;;;;;31.92;20.02;;;;;;;0.06;84.86;101376.13;5056970;28;20402;-71
2021/01/16 06:15:48;;;;;;;32.10;20.90;;;;;;;0.08;85.17;101384.00;5055906;28;20048;-70
2021/01/16 06:18:20;;;;;;;30.02;19.45;;;;;;;0.18;84.48;101383.19;5056675;28;20049;-71
2021/01/16 06:20:53;;;;;;;37.60;21.42;;;;;;;0.10;84.75;101379.63;5055944;28;20056;-71
2021/01/16 06:23:21;;;;;;;33.88;20.25;;;;;;;0.20;84.94;101380.53;5056879;28;20111;-72
2021/01/16 06:25:50;;;;;;;33.25;19.90;;;;;;;0.14;84.40;101370.91;5056510;28;20094;-71
2021/01/16 06:28:18;;;;;;;28.40;18.55;;;;;;;0.18;84.46;101390.16;5055005;28;20052;-71
2021/01/16 06:30:53;;;;;;;32.63;20.55;;;;;;;0.13;84.60;101385.75;5055017;28;20045;-71
2021/01/16 06:33:28;;;;;;;31.88;20.27;;;;;;;0.06;84.70;101373.50;5054399;28;20059;-71
2021/01/16 06:35:56;;;;;;;33.50;19.92;;;;;;;0.08;85.50;101378.75;5054682;28;20053;-71
2021/01/16 06:38:28;;;;;;;31.63;19.40;;;;;;;0.11;84.66;101382.28;5055904;28;20053;-71
2021/01/16 06:40:55;;;;;;;35.00;20.15;;;;;;;0.20;84.27;101388.41;5055314;28;20091;-71
2021/01/16 06:43:25;;;;;;;30.58;18.83;;;;;;;0.19;84.70;101381.41;5055207;28;20059;-70
2021/01/16 06:46:07;;;;;;;32.30;19.58;;;;;;;0.15;83.86;101379.66;5059127;28;20045;-71
2021/01/16 06:48:41;;;;;;;32.20;18.75;;;;;;;0.13;83.32;101380.50;5059156;28;20075;-71
2021/01/16 06:51:29;;;;;;;34.55;20.42;;;;;;;0.07;83.76;101367.41;5059132;28;20091;-70
2021/01/16 06:54:04;;;;;;;32.75;19.88;;;;;;;0.04;84.18;101369.16;5058869;28;20343;-71
2021/01/16 06:56:32;;;;;;;31.60;19.33;;;;;;;0.09;84.37;101381.41;5057817;28;20401;-70
2021/01/16 06:58:59;;;;;;;32.35;19.42;;;;;;;0.02;84.41;101371.75;5059009;28;20049;-70
2021/01/16 07:01:32;;;;;;;32.92;20.30;;;;;;;-0.06;84.58;101353.34;5063867;28;20090;-71
2021/01/16 07:04:00;;;;;;;31.20;19.05;;;;;;;-0.13;85.16;101340.25;5078717;28;20048;-69
2021/01/16 07:06:26;;;;;;;33.78;20.55;;;;;;;0.01;84.92;101364.75;5078788;28;20056;-70
2021/01/16 07:08:53;;;;;;;33.78;20.30;;;;;;;0.08;84.76;101377.03;5078376;28;20048;-70
2021/01/16 07:11:20;;;;;;;31.90;19.00;;;;;;;0.09;84.38;101354.25;5077587;28;20078;-70
2021/01/16 07:13:49;;;;;;;30.58;19.88;;;;;;;0.09;84.39;101362.13;5078664;28;20056;-71
2021/01/16 07:16:17;;;;;;;30.10;19.35;;;;;;;0.07;83.98;101363.88;5061638;28;20060;-70
2021/01/16 07:18:44;;;;;;;32.40;19.15;;;;;;;0.04;84.45;101367.38;5078280;28;20135;-71
2021/01/16 07:21:10;;;;;;;32.05;19.73;;;;;;;0.08;84.54;101370.88;5077501;28;20074;-71
2021/01/16 07:23:36;;;;;;;37.38;19.80;;;;;;;-0.03;83.99;101349.88;5078345;28;20048;-71
2021/01/16 07:26:03;;;;;;;33.47;20.48;;;;;;;0.10;83.91;101367.41;5078498;28;20059;-72
2021/01/16 07:28:33;;;;;;;31.30;19.37;;;;;;;0.07;84.68;101358.63;5078132;28;20061;-70
2021/01/16 07:31:01;;;;;;;36.67;19.67;;;;;;;0.00;85.01;101357.75;5078491;28;20099;-71
2021/01/16 07:33:29;;;;;;;32.53;19.13;;;;;;;0.07;84.68;101363.88;5078426;28;20056;-70
2021/01/16 07:35:58;;;;;;;36.28;20.33;;;;;;;0.16;83.99;101353.41;5077992;28;20056;-71
2021/01/16 07:38:26;;;;;;;31.52;20.30;;;;;;;0.20;83.61;101359.53;5078485;28;20094;-70
2021/01/16 07:40:56;;;;;;;32.72;20.05;;;;;;;0.16;83.75;101357.78;5077901;28;20048;-70
2021/01/16 07:43:47;;;;;;;37.28;20.00;;;;;;;0.09;84.54;101354.25;5078257;28;20326;-70
2021/01/16 07:46:19;;;;;;;26.50;14.60;;;;;;;0.17;84.45;101351.66;5077911;28;20052;-70
2021/01/16 07:48:48;;;;;;;35.08;21.33;;;;;;;0.08;84.59;101344.63;5077858;28;20392;-70
2021/01/16 07:51:18;;;;;;;35.70;20.80;;;;;;;0.15;83.46;101335.88;5076799;28;20064;-70
2021/01/16 07:53:44;;;;;;;34.60;19.38;;;;;;;0.19;83.80;101344.66;5077786;28;20060;-70
2021/01/16 07:56:22;;;;;;;32.22;19.48;;;;;;;0.24;83.54;101345.53;5075015;28;20272;-70
2021/01/16 07:58:54;;;;;;;38.05;20.08;;;;;;;0.21;84.07;101340.28;5070564;28;20052;-74
2021/01/16 08:01:45;;;;;;;29.70;17.60;;;;;;;0.24;83.40;101341.16;5072136;28;20053;-76
2021/01/16 08:04:25;;;;;;;32.83;19.15;;;;;;;0.16;83.20;101318.41;5057380;28;20053;-72
2021/01/16 08:07:03;;;;;;;31.83;18.88;;;;;;;0.28;83.03;101331.53;5056435;28;20060;-70
2021/01/16 08:09:35;;;;;;;28.13;18.13;;;;;;;0.31;83.25;101331.53;5066487;28;20036;-72
2021/01/16 08:12:03;;;;;;;28.85;17.75;;;;;;;0.32;82.91;101330.66;5065671;28;20061;-71
2021/01/16 08:14:32;;;;;;;30.92;19.35;;;;;;;0.29;83.11;101327.16;5060590;28;20056;-71
2021/01/16 08:17:02;;;;;;;36.17;20.60;;;;;;;0.34;83.09;101334.19;5047025;28;20432;-72
2021/01/16 08:19:42;;;;;;;34.60;18.55;;;;;;;0.38;82.57;101322.78;5046093;28;20045;-70
2021/01/16 08:22:19;;;;;;;31.25;19.33;;;;;;;0.33;82.55;101310.53;5042981;28;20045;-70
2021/01/16 08:25:02;;;;;;;31.23;18.88;;;;;;;0.43;82.19;101308.78;5045759;28;20413;-70
2021/01/16 08:27:33;;;;;;;25.98;16.60;;;;;;;0.43;81.85;101322.78;5048080;28;20057;-71
2021/01/16 08:30:07;;;;;;;27.10;17.08;;;;;;;0.49;81.53;101319.28;5045153;28;20041;-69
2021/01/16 08:32:52;;;;;;;27.17;16.83;;;;;;;0.53;81.47;101313.13;5046530;28;20080;-70
2021/01/16 08:35:24;;;;;;;31.38;17.55;;;;;;;0.50;80.77;101310.53;5046570;28;20132;-69
2021/01/16 08:37:51;;;;;;;25.55;16.67;;;;;;;0.58;80.66;101311.38;5046414;28;20596;-70
2021/01/16 08:40:35;;;;;;;29.38;17.85;;;;;;;0.63;79.59;101316.63;5044488;28;20041;-73
2021/01/16 08:43:02;;;;;;;29.05;17.33;;;;;;;0.65;80.10;101312.28;5047628;28;20045;-70
2021/01/16 08:45:30;;;;;;;28.55;17.60;;;;;;;0.64;80.78;101308.75;5043772;28;20109;-78
2021/01/16 08:47:58;;;;;;;25.35;16.13;;;;;;;0.66;80.12;101314.03;5043541;28;20057;-73
2021/01/16 08:50:30;;;;;;;28.67;15.88;;;;;;;0.64;79.35;101319.28;5045008;28;20045;-70
2021/01/16 08:52:57;;;;;;;26.63;16.83;;;;;;;0.61;80.18;101302.63;5047921;28;20053;-70
2021/01/16 08:55:29;;;;;;;26.73;16.50;;;;;;;0.62;80.00;101310.53;5045023;28;20049;-74
2021/01/16 08:58:09;;;;;;;26.90;17.38;;;;;;;0.72;79.99;101311.38;5048952;28;20052;-77
2021/01/16 09:00:37;;;;;;;32.05;16.55;;;;;;;0.73;79.64;101307.00;5044044;28;20050;-73
2021/01/16 09:03:19;;;;;;;25.30;16.00;;;;;;;0.74;79.53;101298.22;5043278;28;20137;-70
2021/01/16 09:05:48;;;;;;;26.50;16.30;;;;;;;0.76;79.19;101299.13;5040530;28;20124;-76
2021/01/16 09:08:21;;;;;;;26.88;16.67;;;;;;;0.76;79.52;101301.75;5043314;28;20099;-71
2021/01/16 09:10:49;;;;;;;29.50;16.73;;;;;;;0.81;79.62;101306.09;5049458;28;20037;-71
2021/01/16 09:13:22;;;;;;;29.67;17.33;;;;;;;0.84;79.47;101302.59;5045627;28;20049;-72
2021/01/16 09:15:48;;;;;;;28.08;17.48;;;;;;;0.85;79.70;101300.81;5047876;28;20055;-71
2021/01/16 09:18:24;;;;;;;28.00;16.58;;;;;;;0.83;78.87;101303.47;5048348;28;20462;-72
2021/01/16 09:20:53;;;;;;;29.38;17.08;;;;;;;0.84;78.16;101307.84;5044614;28;20049;-72
2021/01/16 09:23:19;;;;;;;31.17;16.90;;;;;;;0.87;78.29;101296.47;5045900;28;20045;-72
2021/01/16 09:25:49;;;;;;;27.85;16.92;;;;;;;0.83;78.27;101289.44;5045369;28;20053;-72
2021/01/16 09:28:16;;;;;;;30.87;17.03;;;;;;;0.88;78.10;101292.94;5044266;28;20053;-72
2021/01/16 09:30:44;;;;;;;24.65;15.90;;;;;;;0.91;77.57;101293.81;5043801;28;20144;-71
2021/01/16 09:33:25;;;;;;;25.65;16.30;;;;;;;0.94;77.67;101291.16;5042829;28;20103;-72
2021/01/16 09:35:52;;;;;;;31.60;16.50;;;;;;;0.85;78.35;101293.84;5044782;28;20083;-72
2021/01/16 09:38:20;;;;;;;27.83;16.38;;;;;;;0.94;77.09;101282.41;5039364;28;20056;-71
2021/01/16 09:40:47;;;;;;;26.00;16.08;;;;;;;0.85;76.86;101269.28;5040117;28;20132;-73
2021/01/16 09:43:22;;;;;;;24.85;15.73;;;;;;;1.01;76.63;101285.91;5041892;28;20053;-73
2021/01/16 09:45:53;;;;;;;27.73;15.60;;;;;;;1.03;77.07;101281.53;5047159;28;20047;-72
2021/01/16 09:48:39;;;;;;;23.58;14.85;;;;;;;1.06;77.06;101284.13;5048871;28;20056;-73
2021/01/16 09:51:07;;;;;;;24.50;15.25;;;;;;;1.03;77.44;101273.63;5045513;28;20046;-72
2021/01/16 09:53:33;;;;;;;26.40;15.05;;;;;;;1.08;77.20;101271.84;5044236;28;20049;-73
2021/01/16 09:56:00;;;;;;;29.05;17.25;;;;;;;1.19;75.82;101275.31;5045042;28;20370;-73
2021/01/16 09:58:40;;;;;;;24.50;14.52;;;;;;;1.16;75.72;101274.47;5033357;28;20350;-73
2021/01/16 10:01:14;;;;;;;24.77;15.45;;;;;;;1.12;76.53;101276.22;5040948;28;20128;-74
2021/01/16 10:03:41;;;;;;;26.33;15.45;;;;;;;1.00;75.82;101261.38;5043128;28;20111;-73
2021/01/16 10:06:08;;;;;;;23.58;14.70;;;;;;;1.08;75.86;101277.09;5044579;28;20049;-72
2021/01/16 10:08:39;;;;;;;23.77;14.32;;;;;;;1.08;74.03;101277.09;5043886;28;20061;-73
2021/01/16 10:11:06;;;;;;;25.38;14.73;;;;;;;1.01;75.70;101267.50;5048096;28;20045;-75
2021/01/16 10:13:39;;;;;;;24.52;14.40;;;;;;;1.11;74.06;101279.75;5042463;28;20352;-74
2021/01/16 10:16:08;;;;;;;23.75;14.70;;;;;;;0.98;74.87;101270.16;5043477;28;20056;-71
2021/01/16 10:18:35;;;;;;;22.65;14.00;;;;;;;1.00;74.46;101268.38;5042411;28;20056;-72
2021/01/16 10:21:07;;;;;;;25.67;14.18;;;;;;;1.07;75.14;101271.00;5045227;28;20061;-73
2021/01/16 10:23:36;;;;;;;22.60;13.93;;;;;;;1.05;74.21;101261.34;5044340;28;20049;-71
2021/01/16 10:26:04;;;;;;;23.25;15.05;;;;;;;1.09;75.17;101257.81;5041811;28;20359;-71
2021/01/16 10:28:37;;;;;;;25.85;15.00;;;;;;;1.27;73.27;101262.16;5044370;28;20447;-72
2021/01/16 10:31:06;;;;;;;24.17;13.90;;;;;;;1.19;73.54;101251.66;5044363;28;20045;-73
2021/01/16 10:33:44;;;;;;;20.88;13.13;;;;;;;1.15;73.19;101247.28;5050112;28;20430;-73
2021/01/16 10:36:13;;;;;;;19.38;12.50;;;;;;;1.19;72.45;101251.66;5045548;28;20431;-74
2021/01/16 10:38:46;;;;;;;20.50;13.00;;;;;;;1.21;73.74;101249.03;5046624;28;20137;-72
2021/01/16 10:41:21;;;;;;;20.20;12.23;;;;;;;1.15;71.91;101249.03;5043360;28;20061;-71
2021/01/16 10:43:59;;;;;;;20.00;12.32;;;;;;;1.18;72.65;101242.03;5046736;28;20390;-76
2021/01/16 10:46:32;;;;;;;21.55;12.63;;;;;;;1.21;72.95;101236.72;5051287;28;20446;-71
2021/01/16 10:49:14;;;;;;;19.65;12.00;;;;;;;1.29;71.58;101239.34;5041297;28;20346;-71
2021/01/16 10:52:04;;;;;;;;;;;;;;;1.26;71.86;101235.84;5046206;28;20067;-82
2021/01/16 10:54:31;;;;;;;19.52;10.80;;;;;;;1.24;71.62;101235.00;5043336;28;20322;-78
2021/01/16 10:57:08;;;;;;;17.30;11.10;;;;;;;1.18;71.63;101226.25;5043651;28;20055;-76
2021/01/16 10:59:37;;;;;;;16.25;10.23;;;;;;;1.18;71.28;101225.34;5044839;28;20110;-77
2021/01/16 11:02:10;;;;;;;17.75;10.43;;;;;;;1.19;71.22;101212.19;5046150;28;20416;-72
2021/01/16 11:04:42;;;;;;;17.52;9.75;;;;;;;1.24;70.67;101213.94;5043525;28;20128;-70
2021/01/16 11:07:10;;;;;;;16.58;10.35;;;;;;;1.12;70.60;101207.84;5040762;28;20088;-70
2021/01/16 11:09:36;;;;;;;17.00;9.50;;;;;;;1.32;71.16;101205.09;5045034;28;20045;-72
2021/01/16 11:12:05;;;;;;;15.60;9.95;;;;;;;1.39;71.19;101195.44;5043296;28;20057;-70
2021/01/16 11:14:35;;;;;;;17.05;9.43;;;;;;;1.42;70.90;101192.78;5044554;28;20045;-72
2021/01/16 11:17:03;;;;;;;17.08;9.45;;;;;;;1.36;69.47;101187.53;5039970;28;20057;-72
2021/01/16 11:19:41;;;;;;;16.58;9.43;;;;;;;1.37;69.82;101186.69;5038879;28;20342;-71
2021/01/16 11:22:09;;;;;;;12.95;8.20;;;;;;;1.35;69.86;101180.53;5044760;28;20053;-73
2021/01/16 11:24:36;;;;;;;15.80;8.88;;;;;;;1.32;70.18;101181.44;5044206;28;20045;-73
2021/01/16 11:27:09;;;;;;;16.15;9.68;;;;;;;1.39;69.82;101174.41;5043439;28;20353;-71
2021/01/16 11:29:42;;;;;;;12.90;8.90;;;;;;;1.45;69.70;101176.97;5043166;28;20053;-70
2021/01/16 11:32:14;;;;;;;14.93;8.65;;;;;;;1.49;70.63;101160.28;5049100;28;20061;-72